Time;durP1;ratioP1;P1;durP2;ratioP2;P2;SDS_P1;SDS_P2;PMS_P1;PMS_P2;Temp;Humidity;BMP_temperature;BMP_pressure;BME280_temperature;BME280_humidity;BME280_pressure;Samples;Min_cycle;Max_cycle;Signal;HPM_P1;HPM_P2
2022/09/04 00:00:08;;;;;;;2.70;2.13;;;17.80;84.70;;;;;;5080857;28;20415;-34
2022/09/04 00:03:13;;;;;;;4.90;1.77;;;17.80;86.30;;;;;;5080671;28;20451;-32
2022/09/04 00:05:53;;;;;;;3.07;2.07;;;17.70;86.60;;;;;;5074670;28;20463;-34
2022/09/04 00:08:44;;;;;;;3.63;1.83;;;17.70;88.00;;;;;;5080189;28;20443;-35
2022/09/04 00:11:22;;;;;;;2.10;1.70;;;17.70;88.10;;;;;;5080478;28;20436;-34
2022/09/04 00:13:56;;;;;;;3.60;1.20;;;17.70;89.20;;;;;;5080573;28;20450;-34
2022/09/04 00:16:27;;;;;;;2.60;2.00;;;17.70;89.90;;;;;;5080638;28;20476;-33
2022/09/04 00:19:01;;;;;;;6.70;2.40;;;17.70;90.30;;;;;;5080442;28;20459;-33
2022/09/04 00:21:33;;;;;;;3.57;2.40;;;17.60;90.70;;;;;;5080560;28;20415;-33
2022/09/04 00:24:04;;;;;;;16.90;8.90;;;17.60;91.20;;;;;;5090561;28;20534;-46
2022/09/04 00:26:44;;;;;;;3.10;2.40;;;17.60;91.40;;;;;;5095678;28;20537;-46
2022/09/04 00:29:17;;;;;;;7.00;2.30;;;17.60;91.70;;;;;;5095801;28;20476;-46
2022/09/04 00:31:50;;;;;;;2.33;1.77;;;17.50;92.50;;;;;;5094601;28;20433;-46
2022/09/04 00:34:32;;;;;;;2.70;1.63;;;17.50;92.70;;;;;;5095303;28;20478;-49
2022/09/04 00:37:06;;;;;;;1.77;1.53;;;17.40;93.30;;;;;;5095714;28;20426;-44
2022/09/04 00:39:38;;;;;;;2.63;1.60;;;17.40;94.10;;;;;;5095736;28;20534;-45
2022/09/04 00:42:24;;;;;;;2.23;1.13;;;17.40;94.30;;;;;;5095057;28;20490;-55
2022/09/04 00:45:06;;;;;;;3.23;1.60;;;17.30;94.90;;;;;;5076319;28;20476;-50
2022/09/04 00:48:00;;;;;;;2.53;1.20;;;17.30;95.50;;;;;;5076507;28;20426;-47
2022/09/04 00:50:57;;;;;;;2.37;1.50;;;17.30;95.90;;;;;;5076206;28;20470;-54
2022/09/04 00:53:40;;;;;;;3.57;1.40;;;17.30;96.40;;;;;;5076198;28;20497;-57
2022/09/04 00:56:49;;;;;;;2.67;1.50;;;17.20;97.00;;;;;;5076271;28;20431;-48
2022/09/04 00:59:31;;;;;;;2.63;1.87;;;17.20;97.90;;;;;;5075146;28;20490;-52
2022/09/04 01:02:06;;;;;;;1.60;1.20;;;17.20;98.10;;;;;;5072205;28;20541;-49
2022/09/04 01:04:41;;;;;;;2.03;1.40;;;17.10;98.70;;;;;;5075564;28;20470;-49
2022/09/04 01:07:36;;;;;;;2.67;1.47;;;17.10;99.50;;;;;;5075630;28;20465;-51
2022/09/04 01:10:22;;;;;;;3.70;1.50;;;17.10;99.70;;;;;;5077264;28;20546;-52
2022/09/04 01:12:56;;;;;;;3.50;2.03;;;17.10;99.80;;;;;;5075369;28;20453;-51
2022/09/04 01:15:34;;;;;;;3.17;1.70;;;17.10;99.90;;;;;;5075449;28;20452;-52
2022/09/04 01:18:09;;;;;;;1.77;1.37;;;17.10;99.90;;;;;;5079723;28;20446;-51
2022/09/04 01:20:56;;;;;;;6.80;1.50;;;17.00;99.90;;;;;;5077278;28;20902;-45
2022/09/04 01:23:36;;;;;;;3.53;1.90;;;17.00;99.90;;;;;;5077262;28;20720;-50
2022/09/04 01:26:21;;;;;;;3.30;1.57;;;16.90;99.90;;;;;;5077801;28;20466;-51
2022/09/04 01:29:04;;;;;;;3.00;1.30;;;16.90;99.90;;;;;;5078463;28;20545;-49
2022/09/04 01:31:37;;;;;;;3.43;1.20;;;16.80;99.90;;;;;;5079364;28;20442;-43
2022/09/04 01:34:19;;;;;;;1.93;1.43;;;16.80;99.90;;;;;;5077397;28;20462;-54
2022/09/04 01:36:52;;;;;;;7.03;1.43;;;16.80;99.90;;;;;;5077003;28;20422;-50
2022/09/04 01:39:22;;;;;;;3.63;1.50;;;16.80;99.90;;;;;;5076877;28;20441;-53
2022/09/04 01:41:56;;;;;;;2.23;1.20;;;16.80;99.90;;;;;;5074517;28;20446;-52
2022/09/04 01:44:24;;;;;;;2.53;1.40;;;16.80;99.90;;;;;;5074802;28;20433;-54
2022/09/04 01:47:03;;;;;;;5.00;1.30;;;16.80;99.90;;;;;;5074775;28;20824;-53
2022/09/04 01:49:36;;;;;;;2.47;1.50;;;16.80;99.90;;;;;;5074899;28;20438;-48
2022/09/04 01:52:17;;;;;;;2.97;1.37;;;16.70;99.90;;;;;;5074657;28;20777;-51
2022/09/04 01:54:52;;;;;;;2.50;1.40;;;16.70;99.90;;;;;;5074795;28;20939;-56
2022/09/04 01:57:46;;;;;;;2.30;1.30;;;16.70;99.90;;;;;;5075175;28;20430;-59
2022/09/04 02:00:16;;;;;;;5.30;1.50;;;16.80;99.90;;;;;;5074662;28;20437;-49
2022/09/04 02:02:59;;;;;;;1.97;1.10;;;16.70;99.90;;;;;;5074245;28;20512;-52
2022/09/04 02:05:34;;;;;;;1.80;1.33;;;16.60;99.90;;;;;;5074496;28;20851;-51
2022/09/04 02:08:13;;;;;;;1.53;1.20;;;16.60;99.90;;;;;;5074721;28;20440;-46
2022/09/04 02:10:49;;;;;;;1.07;0.87;;;16.60;99.90;;;;;;5074110;28;20480;-50
2022/09/04 02:13:22;;;;;;;3.27;1.40;;;16.60;99.90;;;;;;5074739;28;20441;-48
2022/09/04 02:16:04;;;;;;;2.00;1.20;;;16.50;99.90;;;;;;5074296;28;20430;-45
2022/09/04 02:18:44;;;;;;;2.00;1.40;;;16.50;99.90;;;;;;5074323;28;20438;-51
2022/09/04 02:21:17;;;;;;;1.50;1.03;;;16.50;99.90;;;;;;5074680;28;20760;-51
2022/09/04 02:23:51;;;;;;;1.50;1.20;;;16.50;99.90;;;;;;5074209;28;20483;-46
2022/09/04 02:26:23;;;;;;;1.30;1.10;;;16.50;99.90;;;;;;5073954;28;20793;-54
2022/09/04 02:29:01;;;;;;;1.60;0.87;;;16.50;99.90;;;;;;5074424;28;20505;-49
2022/09/04 02:31:37;;;;;;;1.73;1.20;;;16.50;99.90;;;;;;5078544;28;20518;-54
2022/09/04 02:34:08;;;;;;;1.77;1.20;;;16.50;99.90;;;;;;5078659;28;20444;-51
2022/09/04 02:36:42;;;;;;;1.40;0.90;;;16.50;99.90;;;;;;5078440;28;20462;-48
2022/09/04 02:39:19;;;;;;;1.93;1.30;;;16.50;99.90;;;;;;5078469;28;20435;-50
2022/09/04 02:41:57;;;;;;;3.27;1.23;;;16.40;99.90;;;;;;5078190;28;20466;-49
2022/09/04 02:44:39;;;;;;;2.13;1.30;;;16.40;99.90;;;;;;5078222;28;20435;-50
2022/09/04 02:47:14;;;;;;;1.53;1.20;;;16.40;99.90;;;;;;5078438;28;20512;-53
2022/09/04 02:49:54;;;;;;;3.17;1.20;;;16.40;99.90;;;;;;5078273;28;20446;-45
2022/09/04 02:52:36;;;;;;;2.73;1.83;;;16.40;99.90;;;;;;5078007;28;20469;-51
2022/09/04 02:55:17;;;;;;;4.40;1.57;;;16.40;99.90;;;;;;5077937;28;20526;-54
2022/09/04 02:58:00;;;;;;;1.97;1.60;;;16.40;99.90;;;;;;5077956;28;20435;-48
2022/09/04 03:00:39;;;;;;;2.57;1.30;;;16.40;99.90;;;;;;5077547;28;20474;-49
2022/09/04 03:03:12;;;;;;;2.03;1.10;;;16.40;99.90;;;;;;5078102;28;20544;-48
2022/09/04 03:05:45;;;;;;;1.67;1.27;;;16.30;99.90;;;;;;5077513;28;20500;-51
2022/09/04 03:08:16;;;;;;;2.20;1.33;;;16.30;99.90;;;;;;5077429;28;20446;-50
2022/09/04 03:10:47;;;;;;;1.37;1.03;;;16.30;99.90;;;;;;5077682;28;20517;-50
2022/09/04 03:13:21;;;;;;;1.73;1.00;;;16.30;99.90;;;;;;5077985;28;20430;-51
2022/09/04 03:16:02;;;;;;;1.50;1.03;;;16.30;99.90;;;;;;5077931;28;20453;-53
2022/09/04 03:18:32;;;;;;;2.30;1.03;;;16.30;99.90;;;;;;5077329;28;20470;-53
2022/09/04 03:21:06;;;;;;;1.60;1.00;;;16.30;99.90;;;;;;5077581;28;20499;-51
2022/09/04 03:23:39;;;;;;;1.53;1.20;;;16.30;99.90;;;;;;5077527;28;20537;-50
2022/09/04 03:26:20;;;;;;;2.40;1.23;;;16.30;99.90;;;;;;5077438;28;20481;-50
2022/09/04 03:28:59;;;;;;;1.40;1.03;;;16.20;99.90;;;;;;5077895;28;20426;-51
2022/09/04 03:31:36;;;;;;;4.07;1.03;;;16.20;99.90;;;;;;5077524;28;20447;-51
2022/09/04 03:34:15;;;;;;;1.57;1.10;;;16.20;99.90;;;;;;5077144;28;20447;-52
2022/09/04 03:36:58;;;;;;;1.50;1.13;;;16.20;99.90;;;;;;5077285;28;20853;-48
2022/09/04 03:39:33;;;;;;;2.17;1.20;;;16.20;99.90;;;;;;5077384;28;20805;-46
2022/09/04 03:42:13;;;;;;;1.90;1.30;;;16.20;99.90;;;;;;5076291;28;20481;-49
2022/09/04 03:44:54;;;;;;;2.13;1.00;;;16.20;99.90;;;;;;5077478;28;20445;-51
2022/09/04 03:47:31;;;;;;;1.30;1.00;;;16.20;99.90;;;;;;5076637;28;20471;-50
2022/09/04 03:50:15;;;;;;;1.97;1.20;;;16.20;99.90;;;;;;5076356;28;20434;-53
2022/09/04 03:52:54;;;;;;;2.07;1.17;;;16.20;99.90;;;;;;5076211;28;20526;-51
2022/09/04 03:55:35;;;;;;;2.07;1.17;;;16.10;99.90;;;;;;5076170;28;20477;-47
2022/09/04 03:58:19;;;;;;;2.03;1.40;;;16.10;99.90;;;;;;5075988;28;21149;-50
2022/09/04 04:00:55;;;;;;;1.90;1.33;;;16.10;99.90;;;;;;5076009;28;20559;-48
2022/09/04 04:03:41;;;;;;;2.03;1.27;;;16.10;99.90;;;;;;5075827;28;20508;-48
2022/09/04 04:06:18;;;;;;;1.30;1.20;;;16.00;99.90;;;;;;5075665;28;20980;-53
2022/09/04 04:09:10;;;;;;;2.07;1.30;;;16.00;99.90;;;;;;5075777;28;20434;-54
2022/09/04 04:12:05;;;;;;;1.93;1.00;;;15.90;99.90;;;;;;5074402;28;20810;-49
2022/09/04 04:14:50;;;;;;;2.63;1.00;;;15.90;99.90;;;;;;5074989;28;20583;-44
2022/09/04 04:17:34;;;;;;;2.00;1.23;;;15.80;99.90;;;;;;5075654;28;20794;-46
2022/09/04 04:20:23;;;;;;;3.03;1.17;;;15.80;99.90;;;;;;5075256;28;20467;-48
2022/09/04 04:23:16;;;;;;;2.67;1.43;;;15.70;99.90;;;;;;5075737;28;20806;-53
2022/09/04 04:26:00;;;;;;;1.93;1.20;;;15.70;99.90;;;;;;5076299;28;20466;-49
2022/09/04 04:28:59;;;;;;;1.67;1.23;;;15.70;99.90;;;;;;5076906;28;20518;-49
2022/09/04 04:31:43;;;;;;;1.40;1.03;;;15.70;99.90;;;;;;5076321;28;20452;-48
2022/09/04 04:34:16;;;;;;;1.30;1.20;;;15.60;99.90;;;;;;5075509;28;20767;-53
2022/09/04 04:36:55;;;;;;;1.57;1.20;;;15.60;99.90;;;;;;5075477;28;20530;-45
2022/09/04 04:39:34;;;;;;;2.00;1.23;;;15.60;99.90;;;;;;5075416;28;20476;-50
2022/09/04 04:42:12;;;;;;;2.13;1.20;;;15.60;99.90;;;;;;5076877;28;20434;-50
2022/09/04 04:48:07;;;;;;;2.57;1.10;;;15.50;99.90;;;;;;5063927;28;20461;-52
2022/09/04 04:50:42;;;;;;;2.70;1.13;;;15.50;99.90;;;;;;5074977;28;20445;-48
2022/09/04 04:53:24;;;;;;;1.60;1.10;;;15.40;99.90;;;;;;5075384;28;20434;-46
2022/09/04 04:55:56;;;;;;;1.30;0.83;;;15.40;99.90;;;;;;5075465;28;20412;-47
2022/09/04 04:58:52;;;;;;;1.93;1.00;;;15.40;99.90;;;;;;5075403;28;20466;-42
2022/09/04 05:01:29;;;;;;;1.67;0.90;;;15.40;99.90;;;;;;5075681;28;20469;-51
2022/09/04 05:04:08;;;;;;;1.20;0.90;;;15.40;99.90;;;;;;5076941;28;20426;-48
2022/09/04 05:06:41;;;;;;;1.30;1.00;;;15.30;99.90;;;;;;5078036;28;20609;-45
2022/09/04 05:09:16;;;;;;;1.53;1.23;;;15.30;99.90;;;;;;5077365;28;21221;-44
2022/09/04 05:11:53;;;;;;;1.87;1.33;;;15.30;99.90;;;;;;5077394;28;20470;-50
2022/09/04 05:14:36;;;;;;;2.63;1.20;;;15.30;99.90;;;;;;5077476;28;20462;-45
2022/09/04 05:17:14;;;;;;;1.70;1.13;;;15.40;99.90;;;;;;5076738;28;20821;-45
2022/09/04 05:19:48;;;;;;;2.00;1.20;;;15.40;99.90;;;;;;5076909;28;20514;-49
2022/09/04 05:22:21;;;;;;;2.30;1.40;;;15.40;99.90;;;;;;5076982;28;20435;-51
2022/09/04 05:24:59;;;;;;;1.90;1.33;;;15.40;99.90;;;;;;5076888;28;20852;-47
2022/09/04 05:27:41;;;;;;;2.37;1.10;;;15.40;99.90;;;;;;5077220;28;20466;-50
2022/09/04 05:30:14;;;;;;;3.40;1.23;;;15.40;99.90;;;;;;5076776;28;20449;-45
2022/09/04 05:32:51;;;;;;;3.00;1.20;;;15.40;99.90;;;;;;5077127;28;20430;-50
2022/09/04 05:35:26;;;;;;;1.43;1.00;;;15.40;99.90;;;;;;5076664;28;20522;-51
2022/09/04 05:37:58;;;;;;;3.30;1.20;;;15.40;99.90;;;;;;5077096;28;20533;-51
2022/09/04 05:40:32;;;;;;;2.90;1.43;;;15.40;99.90;;;;;;5076389;28;20438;-46
2022/09/04 05:43:08;;;;;;;1.60;1.37;;;15.50;99.90;;;;;;5076969;28;20508;-46
2022/09/04 05:45:49;;;;;;;4.40;2.13;;;15.50;99.90;;;;;;5076602;28;20462;-50
2022/09/04 05:48:22;;;;;;;2.50;1.00;;;15.50;99.90;;;;;;5076612;28;20466;-49
2022/09/04 05:50:59;;;;;;;2.00;1.37;;;15.60;99.90;;;;;;5076644;28;20933;-44
2022/09/04 05:53:56;;;;;;;3.37;1.80;;;15.60;99.90;;;;;;5076215;28;20453;-46
2022/09/04 05:56:42;;;;;;;2.07;1.23;;;15.60;99.90;;;;;;5076563;28;20438;-42
2022/09/04 05:59:32;;;;;;;2.83;1.40;;;15.60;99.90;;;;;;5076160;28;20943;-52
2022/09/04 06:02:28;;;;;;;2.93;1.43;;;15.70;99.90;;;;;;5075816;28;20474;-51
2022/09/04 06:05:27;;;;;;;2.97;1.27;;;15.80;99.90;;;;;;5075885;28;20781;-52
2022/09/04 06:08:01;;;;;;;1.93;1.27;;;15.80;99.90;;;;;;5041109;28;20947;-54
2022/09/04 06:10:49;;;;;;;1.40;1.00;;;15.90;99.90;;;;;;5056179;28;20443;-47
2022/09/04 06:13:36;;;;;;;1.80;1.20;;;15.90;99.90;;;;;;5056483;28;20439;-49
2022/09/04 06:16:20;;;;;;;1.80;1.40;;;16.00;99.90;;;;;;5056129;28;20427;-48
2022/09/04 06:19:01;;;;;;;1.63;1.30;;;16.20;99.90;;;;;;5056339;28;20537;-52
2022/09/04 06:21:59;;;;;;;1.90;1.20;;;16.30;99.90;;;;;;5066969;28;20442;-52
2022/09/04 06:25:12;;;;;;;1.73;1.20;;;16.50;99.90;;;;;;5075828;28;20576;-50
2022/09/04 06:28:03;;;;;;;3.17;1.53;;;16.50;99.90;;;;;;5013839;28;20481;-47
2022/09/04 06:30:42;;;;;;;3.20;1.77;;;16.70;99.90;;;;;;5014014;28;20457;-50
2022/09/04 06:33:35;;;;;;;2.67;1.73;;;16.70;99.90;;;;;;5057084;28;20553;-51
2022/09/04 06:36:25;;;;;;;1.67;1.10;;;16.70;99.90;;;;;;5075786;28;20468;-50
2022/09/04 06:39:18;;;;;;;4.50;2.00;;;16.60;99.90;;;;;;5075750;28;20441;-52
2022/09/04 06:41:57;;;;;;;4.40;2.30;;;16.60;99.90;;;;;;5072853;28;20533;-50
2022/09/04 06:44:38;;;;;;;2.87;1.63;;;16.60;99.90;;;;;;5075914;28;20461;-45
2022/09/04 06:47:20;;;;;;;5.93;1.63;;;16.70;99.90;;;;;;5076198;28;20598;-49
2022/09/04 06:50:00;;;;;;;2.90;1.80;;;16.60;99.90;;;;;;5075646;28;20440;-43
2022/09/04 06:52:36;;;;;;;3.50;1.70;;;16.70;99.90;;;;;;5075673;28;20444;-50
2022/09/04 06:55:13;;;;;;;3.20;2.10;;;16.70;99.90;;;;;;5075503;28;20526;-49
2022/09/04 06:57:59;;;;;;;3.93;1.40;;;16.70;99.90;;;;;;5075624;28;20462;-53
2022/09/04 07:00:30;;;;;;;3.20;1.37;;;16.80;99.90;;;;;;5075742;28;20915;-50
2022/09/04 07:03:25;;;;;;;2.20;1.70;;;16.80;99.90;;;;;;5075540;28;20466;-44
2022/09/04 07:05:59;;;;;;;2.20;1.80;;;16.90;99.90;;;;;;5075529;28;20903;-50
2022/09/04 07:08:39;;;;;;;2.60;1.87;;;17.00;99.90;;;;;;5075409;28;20466;-51
2022/09/04 07:11:18;;;;;;;2.00;1.50;;;17.00;99.90;;;;;;5075110;28;20549;-51
2022/09/04 07:14:15;;;;;;;4.47;2.70;;;17.20;99.90;;;;;;5075543;28;20437;-49
2022/09/04 07:16:48;;;;;;;7.50;2.23;;;17.30;99.90;;;;;;5075715;28;20543;-52
2022/09/04 07:19:54;;;;;;;2.97;1.93;;;17.40;99.90;;;;;;5078572;28;20431;-46
2022/09/04 07:23:06;;;;;;;4.40;2.40;;;17.50;99.90;;;;;;5078675;28;20442;-49
2022/09/04 07:25:43;;;;;;;3.60;2.17;;;17.70;99.90;;;;;;5016389;28;20784;-48
2022/09/04 07:28:46;;;;;;;3.53;2.30;;;17.90;99.90;;;;;;5016347;28;20538;-48
2022/09/04 07:31:19;;;;;;;3.73;1.70;;;18.00;99.90;;;;;;5062820;28;20465;-47
2022/09/04 07:33:56;;;;;;;2.60;1.93;;;18.20;99.90;;;;;;5078182;28;20907;-45
2022/09/04 07:36:33;;;;;;;2.60;2.30;;;18.30;99.90;;;;;;5077876;28;20461;-48
2022/09/04 07:39:07;;;;;;;4.37;2.67;;;18.40;99.90;;;;;;5057067;28;20781;-46
2022/09/04 07:41:46;;;;;;;3.37;2.43;;;18.60;99.90;;;;;;5056687;28;20437;-50
2022/09/04 07:44:19;;;;;;;3.33;2.37;;;18.80;99.90;;;;;;5076647;28;20438;-51
2022/09/04 07:46:56;;;;;;;3.50;2.07;;;19.00;99.90;;;;;;5077649;28;20422;-48
2022/09/04 07:49:31;;;;;;;2.53;1.77;;;19.20;99.90;;;;;;5077362;28;20973;-49
2022/09/04 07:52:06;;;;;;;4.80;2.20;;;19.20;99.90;;;;;;5077591;28;20469;-53
2022/09/04 07:54:54;;;;;;;3.53;1.90;;;19.30;99.90;;;;;;5077813;28;20449;-54
2022/09/04 07:57:38;;;;;;;2.10;1.70;;;19.40;99.90;;;;;;5077101;28;20466;-49
2022/09/04 08:00:08;;;;;;;2.47;2.20;;;19.40;99.90;;;;;;5057693;28;20455;-47
2022/09/04 08:03:12;;;;;;;3.20;2.20;;;19.50;99.90;;;;;;5069265;28;20969;-47
2022/09/04 08:05:44;;;;;;;3.20;2.50;;;19.70;99.90;;;;;;5077401;28;20445;-46
2022/09/04 08:08:41;;;;;;;3.37;2.77;;;20.10;99.90;;;;;;5076704;28;20473;-53
2022/09/04 08:11:26;;;;;;;3.17;2.37;;;21.60;99.90;;;;;;5076801;28;20458;-47
2022/09/04 08:14:12;;;;;;;3.30;2.43;;;23.40;97.40;;;;;;5076593;28;20423;-43
2022/09/04 08:16:49;;;;;;;3.30;2.20;;;25.20;90.90;;;;;;5076473;28;20458;-58
2022/09/04 08:19:30;;;;;;;5.43;2.67;;;27.10;78.60;;;;;;5076335;28;20465;-45
2022/09/04 08:21:58;;;;;;;5.13;2.70;;;29.20;69.70;;;;;;5073217;28;20434;-58
2022/09/04 08:24:45;;;;;;;4.03;2.53;;;30.80;59.50;;;;;;5076595;28;20427;-43
2022/09/04 08:27:26;;;;;;;2.53;2.33;;;32.30;54.50;;;;;;5075684;28;20447;-49
2022/09/04 08:30:04;;;;;;;4.40;2.93;;;33.50;50.50;;;;;;5075963;28;20466;-53
2022/09/04 08:33:05;;;;;;;3.60;3.13;;;34.00;47.40;;;;;;5076359;28;20437;-51
2022/09/04 08:35:34;;;;;;;3.73;2.20;;;34.00;46.60;;;;;;5060528;28;20787;-49
2022/09/04 08:38:30;;;;;;;3.60;2.77;;;34.50;46.00;;;;;;5076493;28;20442;-46
2022/09/04 08:41:28;;;;;;;3.17;2.50;;;35.00;45.00;;;;;;5076773;28;20456;-52
2022/09/04 08:44:23;;;;;;;4.23;3.00;;;35.00;44.30;;;;;;5067107;28;20459;-53
2022/09/04 08:47:38;;;;;;;3.60;2.70;;;34.90;43.90;;;;;;5076174;28;20529;-54
2022/09/04 08:50:36;;;;;;;2.80;2.50;;;34.90;43.60;;;;;;5060074;28;20473;-52
2022/09/04 08:53:37;;;;;;;2.90;2.43;;;34.80;43.20;;;;;;5092527;28;20767;-47
2022/09/04 08:56:20;;;;;;;3.37;2.50;;;34.90;43.10;;;;;;5081058;28;20433;-53
2022/09/04 08:59:30;;;;;;;3.70;2.80;;;35.00;42.70;;;;;;5096008;28;20536;-49
2022/09/04 09:02:31;;;;;;;3.47;2.63;;;35.00;42.90;;;;;;5087102;28;20478;-53
2022/09/04 09:05:28;;;;;;;2.47;2.27;;;34.80;42.90;;;;;;5071223;28;20942;-47
2022/09/04 09:08:33;;;;;;;4.27;2.80;;;34.60;43.30;;;;;;5082155;28;20485;-44
2022/09/04 09:11:27;;;;;;;2.70;2.43;;;34.40;43.40;;;;;;5055877;28;20422;-48
2022/09/04 09:14:51;;;;;;;4.50;2.60;;;34.50;43.60;;;;;;5058148;28;20871;-50
2022/09/04 09:17:37;;;;;;;4.10;3.00;;;34.40;43.20;;;;;;5084581;28;20454;-51
2022/09/04 09:20:20;;;;;;;3.60;2.90;;;34.00;43.70;;;;;;5085408;28;20957;-49
2022/09/04 09:23:15;;;;;;;3.97;2.57;;;34.00;43.40;;;;;;5078023;28;20525;-49
2022/09/04 09:25:52;;;;;;;4.63;2.60;;;34.30;42.70;;;;;;5073662;28;20462;-51
2022/09/04 09:29:15;;;;;;;3.00;2.73;;;34.60;42.20;;;;;;5078058;28;20561;-50
2022/09/04 09:32:29;;;;;;;3.23;2.93;;;34.40;42.30;;;;;;5062457;28;20583;-50
2022/09/04 09:35:31;;;;;;;2.20;2.00;;;34.20;42.90;;;;;;5088409;28;20450;-33
2022/09/04 09:38:33;;;;;;;2.83;2.00;;;33.90;42.60;;;;;;5098575;28;20529;-32
2022/09/04 09:41:23;;;;;;;3.90;2.63;;;34.00;42.50;;;;;;5097936;28;20449;-39
2022/09/04 09:44:40;;;;;;;4.07;2.57;;;33.90;42.30;;;;;;5098425;28;20598;-32
2022/09/04 09:47:32;;;;;;;2.53;2.20;;;33.70;42.40;;;;;;5097911;28;20490;-33
2022/09/04 09:50:23;;;;;;;2.73;1.90;;;33.60;42.80;;;;;;5097722;28;20419;-33
2022/09/04 09:53:23;;;;;;;2.43;1.90;;;33.70;43.30;;;;;;5097733;28;20446;-33
2022/09/04 09:56:34;;;;;;;4.33;2.67;;;33.40;43.40;;;;;;5096169;28;20450;-48
2022/09/04 09:59:26;;;;;;;3.23;2.40;;;33.40;43.40;;;;;;5027097;28;20468;-44
2022/09/04 10:02:18;;;;;;;2.63;2.43;;;33.30;43.40;;;;;;5090207;28;20542;-42
2022/09/04 10:05:18;;;;;;;9.97;6.90;;;33.70;42.70;;;;;;5094933;28;20498;-45
2022/09/04 10:08:33;;;;;;;2.83;2.20;;;34.00;42.80;;;;;;5096531;28;20462;-44
2022/09/04 10:11:32;;;;;;;4.00;3.60;;;33.90;42.50;;;;;;5084473;28;20466;-39
2022/09/04 10:14:25;;;;;;;2.70;2.30;;;33.70;42.50;;;;;;5094321;28;20537;-47
2022/09/04 10:17:25;;;;;;;3.20;2.50;;;33.80;43.10;;;;;;5096421;28;20494;-46
2022/09/04 10:20:21;;;;;;;2.60;2.40;;;33.50;42.70;;;;;;5093545;28;20426;-42
2022/09/04 10:23:10;;;;;;;2.37;2.17;;;33.20;43.30;;;;;;5096088;28;20474;-42
2022/09/04 10:26:01;;;;;;;3.70;2.63;;;33.00;43.50;;;;;;5095181;28;20458;-41
2022/09/04 10:29:04;;;;;;;2.53;2.20;;;33.00;43.40;;;;;;5094250;28;20462;-45
2022/09/04 10:32:00;;;;;;;9.40;2.87;;;33.20;43.00;;;;;;5093266;28;20470;-47
2022/09/04 10:34:55;;;;;;;3.60;3.00;;;33.00;43.60;;;;;;5092585;28;20517;-42
2022/09/04 10:37:34;;;;;;;2.67;2.43;;;32.50;44.20;;;;;;5092888;28;20525;-40
2022/09/04 10:43:16;;;;;;;4.30;2.10;;;32.10;44.80;;;;;;5092845;28;20418;-47
2022/09/04 10:45:46;;;;;;;3.27;2.90;;;31.80;44.70;;;;;;5092613;28;20477;-43
2022/09/04 10:48:39;;;;;;;2.47;2.27;;;31.60;44.80;;;;;;5092724;28;20488;-39
2022/09/04 10:51:33;;;;;;;4.60;2.87;;;31.40;45.10;;;;;;5094501;28;20494;-47
2022/09/04 10:54:22;;;;;;;2.40;2.10;;;31.20;46.50;;;;;;5096893;28;20622;-48
2022/09/04 10:57:03;;;;;;;2.23;2.03;;;30.90;46.30;;;;;;5096756;28;20434;-45
2022/09/04 10:59:48;;;;;;;4.30;2.67;;;30.60;46.70;;;;;;5096559;28;20434;-43
2022/09/04 11:02:35;;;;;;;3.30;2.40;;;30.30;47.60;;;;;;5096784;28;20472;-47
2022/09/04 11:05:35;;;;;;;2.80;2.40;;;29.90;47.60;;;;;;5096522;28;20486;-41
2022/09/04 11:08:34;;;;;;;2.40;2.03;;;29.80;48.30;;;;;;5095409;28;20478;-45
2022/09/04 11:11:24;;;;;;;3.27;2.43;;;29.40;48.20;;;;;;5099201;28;20462;-45
2022/09/04 11:14:12;;;;;;;2.93;2.40;;;29.30;49.40;;;;;;5099338;28;20462;-44
2022/09/04 11:17:03;;;;;;;2.33;2.07;;;29.00;48.60;;;;;;5097619;28;20493;-49
2022/09/04 11:20:04;;;;;;;2.20;2.00;;;28.90;48.50;;;;;;5096800;28;20495;-45
2022/09/04 11:23:20;;;;;;;2.63;2.13;;;28.70;48.60;;;;;;5097746;28;20406;-45
2022/09/04 11:26:13;;;;;;;2.40;2.10;;;28.60;49.10;;;;;;5099050;28;20458;-45
2022/09/04 11:29:11;;;;;;;2.53;2.13;;;28.40;48.80;;;;;;5098738;28;20488;-46
2022/09/04 11:32:02;;;;;;;2.47;2.03;;;28.20;50.30;;;;;;5082668;28;20517;-47
2022/09/04 11:35:02;;;;;;;6.13;2.40;;;28.00;50.30;;;;;;5098696;28;20447;-34
2022/09/04 11:37:55;;;;;;;3.47;2.30;;;27.90;50.10;;;;;;5098668;28;20489;-46
2022/09/04 11:41:01;;;;;;;2.90;2.30;;;27.80;50.30;;;;;;5098402;28;20427;-39
2022/09/04 11:44:05;;;;;;;3.20;2.20;;;27.60;50.50;;;;;;5074428;28;20516;-40
2022/09/04 11:46:52;;;;;;;3.60;2.57;;;27.50;50.60;;;;;;5057438;28;20982;-35
2022/09/04 11:49:58;;;;;;;3.37;2.60;;;27.40;50.60;;;;;;5098781;28;20509;-41
2022/09/04 11:53:06;;;;;;;2.50;2.30;;;27.20;51.40;;;;;;5087870;28;20494;-41
2022/09/04 11:56:20;;;;;;;4.07;2.60;;;27.10;51.90;;;;;;5098601;28;20431;-40
2022/09/04 11:59:10;;;;;;;2.87;2.47;;;27.00;53.20;;;;;;5076899;28;20459;-47
2022/09/04 12:01:58;;;;;;;2.90;2.53;;;26.80;52.40;;;;;;5077675;28;20447;-39
2022/09/04 12:04:33;;;;;;;4.50;2.77;;;26.80;52.50;;;;;;5076868;28;20543;-41
2022/09/04 12:07:27;;;;;;;2.97;2.27;;;26.80;53.40;;;;;;5076081;28;20450;-40
2022/09/04 12:10:26;;;;;;;2.97;2.40;;;26.70;53.40;;;;;;5076254;28;20527;-39
2022/09/04 12:13:27;;;;;;;4.17;2.80;;;26.70;52.70;;;;;;5075505;28;20446;-41
2022/09/04 12:16:20;;;;;;;2.80;2.27;;;26.50;52.60;;;;;;5075805;28;20787;-45
2022/09/04 12:19:14;;;;;;;4.50;2.73;;;26.50;52.30;;;;;;5053793;28;20427;-44
2022/09/04 12:22:00;;;;;;;3.17;2.67;;;26.50;52.70;;;;;;5076751;28;20438;-49
2022/09/04 12:25:02;;;;;;;3.40;3.10;;;26.50;52.80;;;;;;5076323;28;20463;-43
2022/09/04 12:28:14;;;;;;;3.63;3.23;;;26.40;52.40;;;;;;5058818;28;20461;-45
2022/09/04 12:30:59;;;;;;;5.07;3.87;;;26.40;52.80;;;;;;5075924;28;20526;-44
2022/09/04 12:33:50;;;;;;;5.73;4.30;;;26.50;52.60;;;;;;5075907;28;20419;-41
2022/09/04 12:36:42;;;;;;;5.37;4.80;;;26.40;52.60;;;;;;5076311;28;20436;-40
2022/09/04 12:39:55;;;;;;;4.80;3.10;;;26.40;52.60;;;;;;5075946;28;20420;-44
2022/09/04 12:42:28;;;;;;;3.20;2.53;;;26.50;53.10;;;;;;5076068;28;20416;-44
2022/09/04 12:45:09;;;;;;;4.20;3.70;;;26.60;53.70;;;;;;5076436;28;20444;-44
2022/09/04 12:47:47;;;;;;;3.53;2.80;;;26.60;54.10;;;;;;5075931;28;20423;-47
2022/09/04 12:50:39;;;;;;;6.70;3.73;;;26.70;54.10;;;;;;5075840;28;20494;-46
2022/09/04 12:53:43;;;;;;;3.10;2.63;;;26.80;54.60;;;;;;5075850;28;20434;-45
2022/09/04 12:56:21;;;;;;;2.70;2.50;;;26.70;53.20;;;;;;5074060;28;20561;-45
2022/09/04 12:59:06;;;;;;;3.83;2.60;;;26.70;52.30;;;;;;5075780;28;20495;-43
2022/09/04 13:01:41;;;;;;;3.10;2.90;;;26.80;53.20;;;;;;5075783;28;20426;-44
2022/09/04 13:04:20;;;;;;;4.33;3.10;;;26.80;51.90;;;;;;5075818;28;20474;-43
2022/09/04 13:07:01;;;;;;;3.10;2.40;;;26.80;52.90;;;;;;5075646;28;20430;-43
2022/09/04 13:09:41;;;;;;;3.33;2.77;;;26.90;51.80;;;;;;5078550;28;20463;-53
2022/09/04 13:12:17;;;;;;;2.60;2.10;;;26.80;51.40;;;;;;5099810;28;20422;-42
2022/09/04 13:15:23;;;;;;;3.57;2.27;;;26.80;51.70;;;;;;5101024;22;20502;-47
2022/09/04 13:17:59;;;;;;;3.70;2.50;;;26.80;51.00;;;;;;5091746;28;20462;-47
2022/09/04 13:20:34;;;;;;;2.53;2.30;;;26.80;50.90;;;;;;5092611;28;20473;-44
2022/09/04 13:23:17;;;;;;;1.83;1.67;;;26.70;51.30;;;;;;5089816;28;20461;-43
2022/09/04 13:25:58;;;;;;;2.83;2.50;;;26.70;51.50;;;;;;5085081;28;20534;-44
2022/09/04 13:28:36;;;;;;;9.27;2.50;;;26.80;52.60;;;;;;5071790;28;20440;-53
2022/09/04 13:31:24;;;;;;;3.83;2.70;;;26.80;52.50;;;;;;5072090;28;20466;-51
2022/09/04 13:34:00;;;;;;;5.50;3.10;;;26.70;52.30;;;;;;5072310;28;20495;-43
2022/09/04 13:36:36;;;;;;;3.93;2.27;;;26.80;52.10;;;;;;5072162;28;20497;-50
2022/09/04 13:39:40;;;;;;;2.97;2.27;;;26.90;51.30;;;;;;5072146;28;20524;-51
2022/09/04 13:42:38;;;;;;;2.40;2.13;;;26.90;51.10;;;;;;5090314;28;20511;-51
2022/09/04 13:45:12;;;;;;;3.67;2.63;;;27.00;50.60;;;;;;5091586;28;20458;-46
2022/09/04 13:47:48;;;;;;;5.53;3.17;;;27.00;50.50;;;;;;5092733;28;20468;-40
2022/09/04 13:50:19;;;;;;;2.83;2.33;;;27.00;51.70;;;;;;5092062;28;20496;-51
2022/09/04 13:52:54;;;;;;;4.13;2.97;;;27.10;52.10;;;;;;5091630;28;20512;-46
2022/09/04 13:55:25;;;;;;;9.00;2.63;;;27.00;51.50;;;;;;5091670;28;20529;-45
2022/09/04 13:57:58;;;;;;;3.90;3.60;;;26.90;51.50;;;;;;5090901;28;20486;-53
2022/09/04 14:00:28;;;;;;;3.40;2.93;;;27.00;51.50;;;;;;5091594;28;20509;-43
2022/09/04 14:03:02;;;;;;;3.97;2.80;;;26.90;51.60;;;;;;5091266;28;20462;-48
2022/09/04 14:05:31;;;;;;;4.13;2.30;;;26.70;51.50;;;;;;5091860;28;20473;-40
2022/09/04 14:08:02;;;;;;;3.33;2.73;;;26.60;51.10;;;;;;5091865;28;20438;-51
2022/09/04 14:10:50;;;;;;;2.80;2.37;;;26.50;51.30;;;;;;5091664;28;20443;-50
2022/09/04 14:13:34;;;;;;;5.07;4.57;;;26.50;51.10;;;;;;5092425;28;20456;-50
2022/09/04 14:16:07;;;;;;;3.73;2.87;;;26.60;52.10;;;;;;5091318;28;20575;-46
2022/09/04 14:19:05;;;;;;;4.13;3.60;;;26.60;51.90;;;;;;5091744;28;20450;-52
2022/09/04 14:21:48;;;;;;;3.70;3.03;;;26.70;52.20;;;;;;5091290;28;20477;-45
2022/09/04 14:24:25;;;;;;;3.93;2.60;;;26.80;52.40;;;;;;5092160;28;20419;-49